sensor_id;sensor_type;location;lat;lon;timestamp;pressure;altitude;pressure_sealevel;temperature;humidity
5691;BME280;2870;42.680;23.364;2023-03-12T00:02:09;94240.41;;;4.94;68.30
5691;BME280;2870;42.680;23.364;2023-03-12T00:04:36;94241.41;;;4.20;68.60
5691;BME280;2870;42.680;23.364;2023-03-12T00:07:03;94253.88;;;4.48;68.18
5691;BME280;2870;42.680;23.364;2023-03-12T00:09:33;94256.53;;;4.53;69.14
5691;BME280;2870;42.680;23.364;2023-03-12T00:12:01;94248.75;;;4.52;70.77
5691;BME280;2870;42.680;23.364;2023-03-12T00:14:29;94269.03;;;4.60;68.17
5691;BME280;2870;42.680;23.364;2023-03-12T00:16:56;94277.50;;;4.41;68.44
5691;BME280;2870;42.680;23.364;2023-03-12T00:19:23;94277.13;;;4.58;66.06
5691;BME280;2870;42.680;23.364;2023-03-12T00:21:49;94271.31;;;4.14;66.88
5691;BME280;2870;42.680;23.364;2023-03-12T00:24:16;94283.16;;;4.70;68.67
5691;BME280;2870;42.680;23.364;2023-03-12T00:26:43;94289.22;;;4.27;66.55
5691;BME280;2870;42.680;23.364;2023-03-12T00:29:10;94285.09;;;4.07;66.34
5691;BME280;2870;42.680;23.364;2023-03-12T00:31:38;94297.31;;;4.38;66.69
5691;BME280;2870;42.680;23.364;2023-03-12T00:34:05;94300.66;;;4.23;67.53
5691;BME280;2870;42.680;23.364;2023-03-12T00:36:32;94294.34;;;4.22;67.62
5691;BME280;2870;42.680;23.364;2023-03-12T00:38:59;94302.56;;;4.28;67.85
5691;BME280;2870;42.680;23.364;2023-03-12T00:41:27;94300.84;;;4.59;66.92
5691;BME280;2870;42.680;23.364;2023-03-12T00:43:55;94293.19;;;4.52;67.02
5691;BME280;2870;42.680;23.364;2023-03-12T00:46:22;94286.81;;;4.44;66.12
5691;BME280;2870;42.680;23.364;2023-03-12T00:48:50;94298.38;;;4.35;68.58
5691;BME280;2870;42.680;23.364;2023-03-12T00:51:17;94297.88;;;4.57;66.42
5691;BME280;2870;42.680;23.364;2023-03-12T00:53:44;94294.50;;;4.72;66.62
5691;BME280;2870;42.680;23.364;2023-03-12T00:56:11;94291.09;;;4.87;66.09
5691;BME280;2870;42.680;23.364;2023-03-12T00:58:38;94289.88;;;4.74;68.06
5691;BME280;2870;42.680;23.364;2023-03-12T01:01:07;94289.81;;;4.88;66.37
5691;BME280;2870;42.680;23.364;2023-03-12T01:03:33;94294.75;;;3.92;67.66
5691;BME280;2870;42.680;23.364;2023-03-12T01:06:02;94291.50;;;4.15;67.39
5691;BME280;2870;42.680;23.364;2023-03-12T01:08:29;94302.06;;;4.50;70.06
5691;BME280;2870;42.680;23.364;2023-03-12T01:10:56;94311.16;;;3.90;68.05
5691;BME280;2870;42.680;23.364;2023-03-12T01:13:23;94299.34;;;4.24;68.82
5691;BME280;2870;42.680;23.364;2023-03-12T01:15:50;94313.97;;;4.38;68.22
5691;BME280;2870;42.680;23.364;2023-03-12T01:18:16;94318.44;;;3.93;67.38
5691;BME280;2870;42.680;23.364;2023-03-12T01:20:43;94310.00;;;3.99;69.21
5691;BME280;2870;42.680;23.364;2023-03-12T01:23:12;94316.97;;;4.27;67.69
5691;BME280;2870;42.680;23.364;2023-03-12T01:25:40;94320.69;;;4.29;67.55
5691;BME280;2870;42.680;23.364;2023-03-12T01:28:07;94328.97;;;4.42;67.55
5691;BME280;2870;42.680;23.364;2023-03-12T01:30:34;94328.47;;;4.31;67.78
5691;BME280;2870;42.680;23.364;2023-03-12T01:33:01;94318.28;;;4.12;68.16
5691;BME280;2870;42.680;23.364;2023-03-12T01:35:27;94314.31;;;4.21;71.29
5691;BME280;2870;42.680;23.364;2023-03-12T01:37:55;94314.88;;;4.06;68.63
5691;BME280;2870;42.680;23.364;2023-03-12T01:40:23;94310.41;;;4.03;68.92
5691;BME280;2870;42.680;23.364;2023-03-12T01:42:53;94280.75;;;3.85;69.50
5691;BME280;2870;42.680;23.364;2023-03-12T01:48:26;94311.94;;;3.51;70.36
5691;BME280;2870;42.680;23.364;2023-03-12T01:50:53;94311.03;;;3.96;69.60
5691;BME280;2870;42.680;23.364;2023-03-12T01:53:20;94323.97;;;3.67;69.77
5691;BME280;2870;42.680;23.364;2023-03-12T01:55:49;94318.00;;;3.76;69.20
5691;BME280;2870;42.680;23.364;2023-03-12T01:58:16;94314.56;;;4.10;68.37
5691;BME280;2870;42.680;23.364;2023-03-12T02:00:44;94325.59;;;3.76;67.24
5691;BME280;2870;42.680;23.364;2023-03-12T02:03:11;94319.56;;;4.11;68.50
5691;BME280;2870;42.680;23.364;2023-03-12T02:05:43;94334.72;;;4.10;67.55
5691;BME280;2870;42.680;23.364;2023-03-12T02:08:14;94327.06;;;3.37;68.95
5691;BME280;2870;42.680;23.364;2023-03-12T02:10:42;94289.56;;;3.36;69.38
5691;BME280;2870;42.680;23.364;2023-03-12T02:13:11;94334.09;;;3.51;69.26
5691;BME280;2870;42.680;23.364;2023-03-12T02:15:38;94332.94;;;3.86;67.75
5691;BME280;2870;42.680;23.364;2023-03-12T02:18:06;94329.94;;;3.44;68.49
5691;BME280;2870;42.680;23.364;2023-03-12T02:23:59;94325.38;;;3.87;70.95
5691;BME280;2870;42.680;23.364;2023-03-12T02:26:29;94328.66;;;3.85;68.64
5691;BME280;2870;42.680;23.364;2023-03-12T02:28:58;94334.09;;;3.51;67.55
5691;BME280;2870;42.680;23.364;2023-03-12T02:31:28;94334.03;;;3.70;69.16
5691;BME280;2870;42.680;23.364;2023-03-12T02:33:57;94338.16;;;3.90;70.48
5691;BME280;2870;42.680;23.364;2023-03-12T02:36:25;94332.50;;;4.09;67.35
5691;BME280;2870;42.680;23.364;2023-03-12T02:38:53;94346.16;;;3.93;68.75
5691;BME280;2870;42.680;23.364;2023-03-12T02:41:22;94322.38;;;3.71;68.56
5691;BME280;2870;42.680;23.364;2023-03-12T02:43:57;94322.59;;;3.73;70.82
5691;BME280;2870;42.680;23.364;2023-03-12T02:46:26;94322.81;;;3.49;70.08
5691;BME280;2870;42.680;23.364;2023-03-12T02:48:55;94318.34;;;3.46;70.97
5691;BME280;2870;42.680;23.364;2023-03-12T02:51:23;94310.97;;;3.49;70.85
5691;BME280;2870;42.680;23.364;2023-03-12T02:53:50;94318.34;;;3.46;71.33
5691;BME280;2870;42.680;23.364;2023-03-12T02:56:20;94323.75;;;3.52;70.47
5691;BME280;2870;42.680;23.364;2023-03-12T02:58:47;94312.47;;;3.63;71.93
5691;BME280;2870;42.680;23.364;2023-03-12T03:01:16;94309.56;;;3.15;70.26
5691;BME280;2870;42.680;23.364;2023-03-12T03:03:43;94312.69;;;3.38;69.85
5691;BME280;2870;42.680;23.364;2023-03-12T03:06:10;94321.72;;;3.26;69.84
5691;BME280;2870;42.680;23.364;2023-03-12T03:08:37;94317.88;;;3.29;70.50
5691;BME280;2870;42.680;23.364;2023-03-12T03:11:04;94306.47;;;3.19;71.84
5691;BME280;2870;42.680;23.364;2023-03-12T03:13:32;94314.19;;;3.53;70.22
5691;BME280;2870;42.680;23.364;2023-03-12T03:15:59;94317.69;;;3.40;71.32
5691;BME280;2870;42.680;23.364;2023-03-12T03:18:30;94324.94;;;3.30;71.44
5691;BME280;2870;42.680;23.364;2023-03-12T03:20:58;94288.88;;;3.03;71.93
5691;BME280;2870;42.680;23.364;2023-03-12T03:23:25;94337.31;;;3.42;70.99
5691;BME280;2870;42.680;23.364;2023-03-12T03:25:52;94346.28;;;3.35;72.20
5691;BME280;2870;42.680;23.364;2023-03-12T03:28:19;94337.38;;;3.23;72.10
5691;BME280;2870;42.680;23.364;2023-03-12T03:30:46;94336.09;;;3.11;71.98
5691;BME280;2870;42.680;23.364;2023-03-12T03:33:13;94340.25;;;3.17;72.46
5691;BME280;2870;42.680;23.364;2023-03-12T03:35:41;94334.28;;;3.13;71.81
5691;BME280;2870;42.680;23.364;2023-03-12T03:38:08;94335.47;;;2.73;71.96
5691;BME280;2870;42.680;23.364;2023-03-12T03:40:35;94329.88;;;3.05;72.39
5691;BME280;2870;42.680;23.364;2023-03-12T03:43:01;94334.91;;;3.06;72.07
5691;BME280;2870;42.680;23.364;2023-03-12T03:45:29;94345.84;;;2.99;71.22
5691;BME280;2870;42.680;23.364;2023-03-12T03:47:55;94348.53;;;3.04;72.09
5691;BME280;2870;42.680;23.364;2023-03-12T03:50:22;94344.94;;;3.09;71.66
5691;BME280;2870;42.680;23.364;2023-03-12T03:52:50;94340.22;;;3.04;71.16
5691;BME280;2870;42.680;23.364;2023-03-12T03:55:17;94330.88;;;3.07;70.60
5691;BME280;2870;42.680;23.364;2023-03-12T03:57:44;94346.13;;;3.14;70.49
5691;BME280;2870;42.680;23.364;2023-03-12T04:00:12;94356.56;;;3.21;69.60
5691;BME280;2870;42.680;23.364;2023-03-12T04:02:42;94364.16;;;2.88;70.20
5691;BME280;2870;42.680;23.364;2023-03-12T04:05:09;94370.97;;;3.19;69.45
5691;BME280;2870;42.680;23.364;2023-03-12T04:07:36;94376.00;;;3.34;68.94
5691;BME280;2870;42.680;23.364;2023-03-12T04:10:05;94381.47;;;3.53;68.59
5691;BME280;2870;42.680;23.364;2023-03-12T04:12:32;94389.16;;;3.02;69.00
5691;BME280;2870;42.680;23.364;2023-03-12T04:14:59;94388.28;;;2.75;69.16
5691;BME280;2870;42.680;23.364;2023-03-12T04:17:26;94402.63;;;2.92;70.42
5691;BME280;2870;42.680;23.364;2023-03-12T04:19:53;94404.66;;;3.24;71.30
5691;BME280;2870;42.680;23.364;2023-03-12T04:22:20;94407.22;;;2.89;68.91
5691;BME280;2870;42.680;23.364;2023-03-12T04:24:46;94417.59;;;3.02;66.78
5691;BME280;2870;42.680;23.364;2023-03-12T04:27:15;94410.22;;;3.24;66.19
5691;BME280;2870;42.680;23.364;2023-03-12T04:29:42;94415.25;;;3.38;66.98
5691;BME280;2870;42.680;23.364;2023-03-12T04:32:09;94419.78;;;2.90;65.25
5691;BME280;2870;42.680;23.364;2023-03-12T04:34:36;94431.19;;;3.19;67.46
5691;BME280;2870;42.680;23.364;2023-03-12T04:37:03;94424.66;;;2.65;64.29
5691;BME280;2870;42.680;23.364;2023-03-12T04:39:30;94434.31;;;2.78;66.14
5691;BME280;2870;42.680;23.364;2023-03-12T04:41:57;94432.28;;;2.97;66.30
5691;BME280;2870;42.680;23.364;2023-03-12T04:44:25;94437.56;;;3.14;65.67
5691;BME280;2870;42.680;23.364;2023-03-12T04:46:52;94438.28;;;3.01;63.72
5691;BME280;2870;42.680;23.364;2023-03-12T04:49:18;94447.56;;;2.85;64.98
5691;BME280;2870;42.680;23.364;2023-03-12T04:51:45;94456.22;;;2.95;64.33
5691;BME280;2870;42.680;23.364;2023-03-12T04:54:12;94455.56;;;2.88;64.23
5691;BME280;2870;42.680;23.364;2023-03-12T04:56:39;94454.47;;;2.78;64.51
5691;BME280;2870;42.680;23.364;2023-03-12T04:59:06;94468.75;;;2.63;64.14
5691;BME280;2870;42.680;23.364;2023-03-12T05:01:35;94477.50;;;2.68;65.35
5691;BME280;2870;42.680;23.364;2023-03-12T05:04:03;94488.72;;;2.56;65.27
5691;BME280;2870;42.680;23.364;2023-03-12T05:06:30;94485.75;;;2.73;65.46
5691;BME280;2870;42.680;23.364;2023-03-12T05:08:57;94476.81;;;2.99;67.24
5691;BME280;2870;42.680;23.364;2023-03-12T05:11:24;94484.84;;;3.03;66.66
5691;BME280;2870;42.680;23.364;2023-03-12T05:13:52;94484.63;;;3.01;64.89
5691;BME280;2870;42.680;23.364;2023-03-12T05:16:19;94500.41;;;2.68;65.96
5691;BME280;2870;42.680;23.364;2023-03-12T05:18:47;94499.28;;;2.77;65.29
5691;BME280;2870;42.680;23.364;2023-03-12T05:21:16;94496.50;;;2.77;65.45
5691;BME280;2870;42.680;23.364;2023-03-12T05:23:44;94504.47;;;2.67;65.98
5691;BME280;2870;42.680;23.364;2023-03-12T05:26:16;94510.31;;;3.01;67.08
5691;BME280;2870;42.680;23.364;2023-03-12T05:28:43;94506.03;;;2.81;65.63
5691;BME280;2870;42.680;23.364;2023-03-12T05:31:11;94509.13;;;2.53;66.79
5691;BME280;2870;42.680;23.364;2023-03-12T05:33:38;94505.50;;;2.64;65.97
5691;BME280;2870;42.680;23.364;2023-03-12T05:36:07;94513.47;;;2.49;66.96
5691;BME280;2870;42.680;23.364;2023-03-12T05:38:34;94492.31;;;2.70;66.35
5691;BME280;2870;42.680;23.364;2023-03-12T05:41:01;94525.41;;;3.00;65.64
5691;BME280;2870;42.680;23.364;2023-03-12T05:43:29;94531.31;;;3.29;64.55
5691;BME280;2870;42.680;23.364;2023-03-12T05:45:58;94538.72;;;2.83;63.44
5691;BME280;2870;42.680;23.364;2023-03-12T05:48:25;94538.66;;;3.26;62.65
5691;BME280;2870;42.680;23.364;2023-03-12T05:50:52;94531.56;;;2.93;62.69
5691;BME280;2870;42.680;23.364;2023-03-12T05:53:20;94534.09;;;2.91;61.70
5691;BME280;2870;42.680;23.364;2023-03-12T05:55:47;94535.19;;;3.39;62.72
5691;BME280;2870;42.680;23.364;2023-03-12T05:58:14;94547.22;;;3.60;62.36
5691;BME280;2870;42.680;23.364;2023-03-12T06:00:41;94554.91;;;3.86;62.48
5691;BME280;2870;42.680;23.364;2023-03-12T06:03:09;94561.00;;;3.98;60.75
5691;BME280;2870;42.680;23.364;2023-03-12T06:05:36;94569.44;;;3.73;60.96
5691;BME280;2870;42.680;23.364;2023-03-12T06:08:04;94565.75;;;3.52;59.96
5691;BME280;2870;42.680;23.364;2023-03-12T06:10:32;94564.09;;;3.62;60.39
5691;BME280;2870;42.680;23.364;2023-03-12T06:13:00;94571.00;;;3.88;59.76
5691;BME280;2870;42.680;23.364;2023-03-12T06:15:27;94574.75;;;3.58;57.58
5691;BME280;2870;42.680;23.364;2023-03-12T06:17:53;94581.84;;;3.72;57.98
5691;BME280;2870;42.680;23.364;2023-03-12T06:20:21;94584.22;;;3.82;58.40
5691;BME280;2870;42.680;23.364;2023-03-12T06:22:47;94577.66;;;3.66;57.76
5691;BME280;2870;42.680;23.364;2023-03-12T06:25:14;94587.34;;;3.59;57.60
5691;BME280;2870;42.680;23.364;2023-03-12T06:27:42;94599.53;;;3.69;57.01
5691;BME280;2870;42.680;23.364;2023-03-12T06:30:10;94595.31;;;3.82;57.14
5691;BME280;2870;42.680;23.364;2023-03-12T06:32:37;94583.97;;;3.98;56.61
5691;BME280;2870;42.680;23.364;2023-03-12T06:35:04;94596.53;;;3.99;57.11
5691;BME280;2870;42.680;23.364;2023-03-12T06:37:31;94595.97;;;3.88;57.04
5691;BME280;2870;42.680;23.364;2023-03-12T06:39:58;94607.16;;;3.82;56.93
5691;BME280;2870;42.680;23.364;2023-03-12T06:42:25;94606.75;;;4.23;57.00
5691;BME280;2870;42.680;23.364;2023-03-12T06:44:53;94614.72;;;4.14;56.23
5691;BME280;2870;42.680;23.364;2023-03-12T06:47:20;94624.09;;;4.43;57.60
5691;BME280;2870;42.680;23.364;2023-03-12T06:49:47;94619.72;;;4.47;56.26
5691;BME280;2870;42.680;23.364;2023-03-12T06:52:14;94623.91;;;4.54;56.43
5691;BME280;2870;42.680;23.364;2023-03-12T06:54:41;94621.13;;;4.67;55.57
5691;BME280;2870;42.680;23.364;2023-03-12T06:57:07;94634.59;;;5.03;54.45
5691;BME280;2870;42.680;23.364;2023-03-12T06:59:34;94637.50;;;4.97;52.60
5691;BME280;2870;42.680;23.364;2023-03-12T07:02:02;94633.94;;;5.37;54.22
5691;BME280;2870;42.680;23.364;2023-03-12T07:04:29;94637.56;;;5.45;50.63
5691;BME280;2870;42.680;23.364;2023-03-12T07:06:56;94641.38;;;6.02;50.69
5691;BME280;2870;42.680;23.364;2023-03-12T07:09:23;94639.09;;;6.84;48.21
5691;BME280;2870;42.680;23.364;2023-03-12T07:11:50;94653.34;;;7.30;45.62
5691;BME280;2870;42.680;23.364;2023-03-12T07:14:16;94667.13;;;7.72;45.49
5691;BME280;2870;42.680;23.364;2023-03-12T07:16:44;94661.25;;;7.98;45.91
5691;BME280;2870;42.680;23.364;2023-03-12T07:19:12;94655.44;;;8.63;43.44
5691;BME280;2870;42.680;23.364;2023-03-12T07:21:39;94672.78;;;8.92;40.98
5691;BME280;2870;42.680;23.364;2023-03-12T07:24:06;94669.97;;;8.54;40.75
5691;BME280;2870;42.680;23.364;2023-03-12T07:26:34;94675.53;;;9.23;42.29
5691;BME280;2870;42.680;23.364;2023-03-12T07:29:01;94685.19;;;9.52;40.59
5691;BME280;2870;42.680;23.364;2023-03-12T07:31:28;94679.00;;;9.62;40.95
5691;BME280;2870;42.680;23.364;2023-03-12T07:33:55;94684.63;;;9.46;39.71
5691;BME280;2870;42.680;23.364;2023-03-12T07:36:23;94681.88;;;9.23;39.61
5691;BME280;2870;42.680;23.364;2023-03-12T07:38:50;94697.25;;;9.78;40.40
5691;BME280;2870;42.680;23.364;2023-03-12T07:41:16;94703.75;;;10.94;37.96
5691;BME280;2870;42.680;23.364;2023-03-12T07:43:43;94692.38;;;10.92;36.97
5691;BME280;2870;42.680;23.364;2023-03-12T07:46:10;94696.50;;;10.91;37.74
5691;BME280;2870;42.680;23.364;2023-03-12T07:48:37;94699.03;;;9.43;38.92
5691;BME280;2870;42.680;23.364;2023-03-12T07:51:05;94710.09;;;10.44;38.26
5691;BME280;2870;42.680;23.364;2023-03-12T07:53:33;94712.97;;;10.29;38.84
5691;BME280;2870;42.680;23.364;2023-03-12T07:56:00;94714.28;;;10.60;39.49
5691;BME280;2870;42.680;23.364;2023-03-12T07:58:27;94710.53;;;10.91;37.41
5691;BME280;2870;42.680;23.364;2023-03-12T08:00:54;94692.47;;;10.03;37.41
5691;BME280;2870;42.680;23.364;2023-03-12T08:03:21;94714.09;;;9.63;39.52
5691;BME280;2870;42.680;23.364;2023-03-12T08:05:57;94722.84;;;10.30;39.21
5691;BME280;2870;42.680;23.364;2023-03-12T08:08:24;94715.25;;;10.07;37.61
5691;BME280;2870;42.680;23.364;2023-03-12T08:10:53;94717.63;;;10.34;37.58
5691;BME280;2870;42.680;23.364;2023-03-12T08:13:20;94718.78;;;9.52;38.87
5691;BME280;2870;42.680;23.364;2023-03-12T08:15:48;94725.50;;;9.65;39.19
5691;BME280;2870;42.680;23.364;2023-03-12T08:18:15;94734.63;;;9.73;39.48
5691;BME280;2870;42.680;23.364;2023-03-12T08:20:41;94733.38;;;8.90;38.64
5691;BME280;2870;42.680;23.364;2023-03-12T08:23:08;94733.13;;;7.98;40.76
5691;BME280;2870;42.680;23.364;2023-03-12T08:25:36;94741.97;;;8.99;39.70
5691;BME280;2870;42.680;23.364;2023-03-12T08:28:05;94743.59;;;9.71;40.55
5691;BME280;2870;42.680;23.364;2023-03-12T08:30:31;94747.72;;;9.70;39.00
5691;BME280;2870;42.680;23.364;2023-03-12T08:32:58;94755.69;;;9.89;40.39
5691;BME280;2870;42.680;23.364;2023-03-12T08:35:25;94759.31;;;10.15;38.02
5691;BME280;2870;42.680;23.364;2023-03-12T08:37:52;94754.81;;;10.34;37.03
5691;BME280;2870;42.680;23.364;2023-03-12T08:40:21;94755.69;;;9.89;37.34
5691;BME280;2870;42.680;23.364;2023-03-12T08:42:48;94717.06;;;10.20;37.97
5691;BME280;2870;42.680;23.364;2023-03-12T08:45:17;94752.22;;;12.04;36.08
5691;BME280;2870;42.680;23.364;2023-03-12T08:47:44;94766.81;;;10.60;36.19
5691;BME280;2870;42.680;23.364;2023-03-12T08:50:12;94760.19;;;9.77;37.48
5691;BME280;2870;42.680;23.364;2023-03-12T08:52:40;94765.84;;;10.98;37.14
5691;BME280;2870;42.680;23.364;2023-03-12T08:55:08;94755.97;;;10.64;38.23
5691;BME280;2870;42.680;23.364;2023-03-12T08:57:35;94765.03;;;10.80;37.55
5691;BME280;2870;42.680;23.364;2023-03-12T09:00:02;94773.25;;;12.47;35.01
5691;BME280;2870;42.680;23.364;2023-03-12T09:02:33;94776.56;;;12.53;34.48
5691;BME280;2870;42.680;23.364;2023-03-12T09:05:00;94779.63;;;11.36;35.65
5691;BME280;2870;42.680;23.364;2023-03-12T09:07:29;94755.25;;;12.33;35.76
5691;BME280;2870;42.680;23.364;2023-03-12T09:09:56;94765.00;;;13.76;34.36
5691;BME280;2870;42.680;23.364;2023-03-12T09:12:23;94759.56;;;13.05;34.46
5691;BME280;2870;42.680;23.364;2023-03-12T09:14:51;94771.72;;;13.08;34.25
5691;BME280;2870;42.680;23.364;2023-03-12T09:17:17;94774.41;;;10.75;36.34
5691;BME280;2870;42.680;23.364;2023-03-12T09:19:46;94782.22;;;10.84;39.19
5691;BME280;2870;42.680;23.364;2023-03-12T09:22:13;94753.13;;;12.06;34.15
5691;BME280;2870;42.680;23.364;2023-03-12T09:24:40;94758.41;;;12.37;35.95
5691;BME280;2870;42.680;23.364;2023-03-12T09:27:07;94763.44;;;10.94;35.76
5691;BME280;2870;42.680;23.364;2023-03-12T09:29:33;94766.50;;;11.81;36.68
5691;BME280;2870;42.680;23.364;2023-03-12T09:32:00;94773.22;;;11.60;34.89
5691;BME280;2870;42.680;23.364;2023-03-12T09:34:27;94768.88;;;11.17;36.61
5691;BME280;2870;42.680;23.364;2023-03-12T09:36:56;94766.56;;;11.31;36.79
5691;BME280;2870;42.680;23.364;2023-03-12T09:39:23;94761.03;;;12.35;34.66
5691;BME280;2870;42.680;23.364;2023-03-12T09:41:50;94766.78;;;12.71;34.30
5691;BME280;2870;42.680;23.364;2023-03-12T09:44:24;94767.66;;;12.74;34.06
5691;BME280;2870;42.680;23.364;2023-03-12T09:46:57;94771.09;;;11.68;35.06
5691;BME280;2870;42.680;23.364;2023-03-12T09:49:31;94758.09;;;10.81;34.96
5691;BME280;2870;42.680;23.364;2023-03-12T09:52:02;94769.09;;;11.61;36.93
5691;BME280;2870;42.680;23.364;2023-03-12T09:54:37;94760.72;;;12.13;37.80
5691;BME280;2870;42.680;23.364;2023-03-12T09:57:10;94758.56;;;12.39;36.43
5691;BME280;2870;42.680;23.364;2023-03-12T09:59:38;94763.63;;;12.06;34.09
5691;BME280;2870;42.680;23.364;2023-03-12T10:02:18;94767.56;;;13.09;34.53
5691;BME280;2870;42.680;23.364;2023-03-12T10:04:50;94765.84;;;12.07;34.60
5691;BME280;2870;42.680;23.364;2023-03-12T10:07:24;94757.78;;;13.37;33.97
5691;BME280;2870;42.680;23.364;2023-03-12T10:10:08;94750.72;;;11.85;34.70
5691;BME280;2870;42.680;23.364;2023-03-12T10:12:49;94759.88;;;11.68;36.24
5691;BME280;2870;42.680;23.364;2023-03-12T10:15:30;94751.31;;;11.17;36.50
5691;BME280;2870;42.680;23.364;2023-03-12T10:18:10;94756.84;;;12.26;34.62
5691;BME280;2870;42.680;23.364;2023-03-12T10:20:52;94744.50;;;12.39;34.92
5691;BME280;2870;42.680;23.364;2023-03-12T10:23:33;94743.88;;;12.58;33.26
5691;BME280;2870;42.680;23.364;2023-03-12T10:26:04;94721.88;;;9.87;36.27
5691;BME280;2870;42.680;23.364;2023-03-12T10:28:35;94752.09;;;9.96;37.49
5691;BME280;2870;42.680;23.364;2023-03-12T10:31:06;94753.53;;;10.93;35.88
5691;BME280;2870;42.680;23.364;2023-03-12T10:33:41;94754.09;;;10.19;35.52
5691;BME280;2870;42.680;23.364;2023-03-12T10:36:15;94752.19;;;11.69;34.22
5691;BME280;2870;42.680;23.364;2023-03-12T10:38:45;94742.31;;;11.60;37.31
5691;BME280;2870;42.680;23.364;2023-03-12T10:41:14;94749.88;;;12.27;34.36
5691;BME280;2870;42.680;23.364;2023-03-12T10:43:42;94752.38;;;12.94;33.18
5691;BME280;2870;42.680;23.364;2023-03-12T10:49:26;94739.53;;;9.26;39.36
5691;BME280;2870;42.680;23.364;2023-03-12T10:51:54;94742.16;;;8.86;40.68
5691;BME280;2870;42.680;23.364;2023-03-12T10:54:28;94751.97;;;9.79;38.54
5691;BME280;2870;42.680;23.364;2023-03-12T10:56:55;94742.41;;;10.45;38.39
5691;BME280;2870;42.680;23.364;2023-03-12T10:59:26;94749.00;;;11.48;36.72
5691;BME280;2870;42.680;23.364;2023-03-12T11:01:53;94749.44;;;11.79;36.62
5691;BME280;2870;42.680;23.364;2023-03-12T11:04:23;94736.41;;;11.91;35.34
5691;BME280;2870;42.680;23.364;2023-03-12T11:07:21;94738.06;;;10.84;37.58
5691;BME280;2870;42.680;23.364;2023-03-12T11:10:20;94738.53;;;9.70;39.47
5691;BME280;2870;42.680;23.364;2023-03-12T11:12:56;94735.44;;;10.54;39.88
5691;BME280;2870;42.680;23.364;2023-03-12T11:15:26;94746.25;;;11.40;38.66
5691;BME280;2870;42.680;23.364;2023-03-12T11:18:17;94743.81;;;10.14;37.43
5691;BME280;2870;42.680;23.364;2023-03-12T11:20:45;94731.41;;;9.84;38.37
5691;BME280;2870;42.680;23.364;2023-03-12T11:23:13;94733.66;;;10.41;37.38
5691;BME280;2870;42.680;23.364;2023-03-12T11:25:51;94739.94;;;10.82;36.04
5691;BME280;2870;42.680;23.364;2023-03-12T11:28:22;94738.06;;;10.04;38.13
5691;BME280;2870;42.680;23.364;2023-03-12T11:30:52;94734.66;;;10.61;36.60
5691;BME280;2870;42.680;23.364;2023-03-12T11:33:19;94735.19;;;10.34;36.50
5691;BME280;2870;42.680;23.364;2023-03-12T11:35:54;94737.66;;;10.88;37.94
5691;BME280;2870;42.680;23.364;2023-03-12T11:38:30;94729.88;;;11.29;37.14
5691;BME280;2870;42.680;23.364;2023-03-12T11:41:15;94729.22;;;10.63;35.63
5691;BME280;2870;42.680;23.364;2023-03-12T11:43:57;94733.22;;;10.04;37.46
5691;BME280;2870;42.680;23.364;2023-03-12T11:46:35;94716.72;;;9.61;36.84
5691;BME280;2870;42.680;23.364;2023-03-12T11:49:16;94715.25;;;10.55;37.25
5691;BME280;2870;42.680;23.364;2023-03-12T11:51:54;94712.69;;;10.42;37.39
5691;BME280;2870;42.680;23.364;2023-03-12T11:54:44;94705.06;;;10.35;36.46
5691;BME280;2870;42.680;23.364;2023-03-12T11:57:21;94709.69;;;10.00;38.33
5691;BME280;2870;42.680;23.364;2023-03-12T11:59:58;94708.19;;;10.06;37.00
5691;BME280;2870;42.680;23.364;2023-03-12T12:02:52;94714.72;;;10.01;38.57
5691;BME280;2870;42.680;23.364;2023-03-12T12:05:37;94708.31;;;10.56;37.63
5691;BME280;2870;42.680;23.364;2023-03-12T12:08:19;94717.13;;;10.53;36.83
5691;BME280;2870;42.680;23.364;2023-03-12T12:10:59;94718.72;;;11.21;37.79
5691;BME280;2870;42.680;23.364;2023-03-12T12:13:35;94717.47;;;10.17;37.79
5691;BME280;2870;42.680;23.364;2023-03-12T12:19:07;94721.06;;;9.16;38.34
5691;BME280;2870;42.680;23.364;2023-03-12T12:22:00;94713.41;;;8.78;38.67
5691;BME280;2870;42.680;23.364;2023-03-12T12:24:38;94722.19;;;9.05;38.92
5691;BME280;2870;42.680;23.364;2023-03-12T12:27:16;94725.16;;;8.69;38.97
5691;BME280;2870;42.680;23.364;2023-03-12T12:30:00;94723.84;;;8.70;41.51
5691;BME280;2870;42.680;23.364;2023-03-12T12:32:38;94718.84;;;8.91;39.39
5691;BME280;2870;42.680;23.364;2023-03-12T12:35:20;94719.03;;;9.16;40.54
5691;BME280;2870;42.680;23.364;2023-03-12T12:37:55;94715.03;;;9.57;39.33
5691;BME280;2870;42.680;23.364;2023-03-12T12:40:26;94724.41;;;10.16;39.57
5691;BME280;2870;42.680;23.364;2023-03-12T12:43:00;94722.44;;;9.86;38.31
5691;BME280;2870;42.680;23.364;2023-03-12T12:45:31;94720.50;;;9.48;39.78
5691;BME280;2870;42.680;23.364;2023-03-12T12:48:01;94706.34;;;9.31;40.64
5691;BME280;2870;42.680;23.364;2023-03-12T12:50:32;94714.78;;;9.86;38.98
5691;BME280;2870;42.680;23.364;2023-03-12T12:53:07;94705.94;;;9.42;39.44
5691;BME280;2870;42.680;23.364;2023-03-12T12:55:41;94716.94;;;9.47;39.37
5691;BME280;2870;42.680;23.364;2023-03-12T12:58:15;94700.72;;;9.23;39.31
5691;BME280;2870;42.680;23.364;2023-03-12T13:00:47;94714.78;;;8.33;39.26
5691;BME280;2870;42.680;23.364;2023-03-12T13:03:17;94706.13;;;8.60;39.55
5691;BME280;2870;42.680;23.364;2023-03-12T13:05:53;94723.31;;;9.02;39.67
5691;BME280;2870;42.680;23.364;2023-03-12T13:11:39;94723.59;;;8.37;39.99
5691;BME280;2870;42.680;23.364;2023-03-12T13:14:20;94729.16;;;7.86;40.90
5691;BME280;2870;42.680;23.364;2023-03-12T13:16:49;94727.78;;;8.82;42.50
5691;BME280;2870;42.680;23.364;2023-03-12T13:19:37;94722.00;;;9.26;39.58
5691;BME280;2870;42.680;23.364;2023-03-12T13:22:11;94727.97;;;8.99;39.55
5691;BME280;2870;42.680;23.364;2023-03-12T13:24:45;94728.72;;;8.92;41.39
5691;BME280;2870;42.680;23.364;2023-03-12T13:27:19;94727.78;;;8.15;40.79
5691;BME280;2870;42.680;23.364;2023-03-12T13:29:48;94731.78;;;7.91;40.86
5691;BME280;2870;42.680;23.364;2023-03-12T13:33:05;94728.97;;;8.35;40.77
5691;BME280;2870;42.680;23.364;2023-03-12T13:35:38;94735.44;;;9.20;40.22
5691;BME280;2870;42.680;23.364;2023-03-12T13:38:10;94742.25;;;9.80;38.83
5691;BME280;2870;42.680;23.364;2023-03-12T13:40:54;94745.28;;;9.67;38.27
5691;BME280;2870;42.680;23.364;2023-03-12T13:43:52;94739.13;;;9.61;39.91
5691;BME280;2870;42.680;23.364;2023-03-12T13:46:38;94738.44;;;8.91;40.73
5691;BME280;2870;42.680;23.364;2023-03-12T13:49:15;94734.88;;;8.83;40.10
5691;BME280;2870;42.680;23.364;2023-03-12T13:52:02;94736.38;;;8.99;40.07